createdAt,value
2022-08-12T00:00:35.288Z,101503.22
2022-08-12T00:03:21.566Z,101489.38
2022-08-12T00:06:09.047Z,101490.19
2022-08-12T00:08:58.066Z,101486.09
2022-08-12T00:11:45.781Z,101486.34
2022-08-12T00:14:33.024Z,101486.19
2022-08-12T00:17:18.982Z,101491.28
2022-08-12T00:20:05.546Z,101483.13
2022-08-12T00:22:58.665Z,101489.22
2022-08-12T00:26:23.184Z,101489.72
2022-08-12T00:29:02.199Z,101488.28
2022-08-12T00:31:48.437Z,101496.44
2022-08-12T00:34:35.627Z,101484.91
2022-08-12T00:37:22.190Z,101492.53
2022-08-12T00:40:11.552Z,101490.16
2022-08-12T00:42:42.565Z,101476.97
2022-08-12T00:45:12.259Z,101481.91
2022-08-12T00:47:41.991Z,101489.00
2022-08-12T00:50:18.142Z,101490.72
2022-08-12T00:52:47.680Z,101482.44
2022-08-12T00:55:19.282Z,101487.16
2022-08-12T00:57:52.037Z,101488.53
2022-08-12T01:00:23.282Z,101485.91
2022-08-12T01:02:57.615Z,101495.84
2022-08-12T01:05:44.667Z,101496.69
2022-08-12T01:08:30.889Z,101492.50
2022-08-12T01:11:13.587Z,101499.28
2022-08-12T01:13:49.330Z,101496.34
2022-08-12T01:16:22.899Z,101500.34
2022-08-12T01:18:53.450Z,101496.16
2022-08-12T01:21:57.959Z,101493.09
2022-08-12T01:25:06.878Z,101491.75
2022-08-12T01:27:39.325Z,101494.66
2022-08-12T01:30:12.261Z,101490.78
2022-08-12T01:32:42.776Z,101484.09
2022-08-12T01:35:14.632Z,101486.38
2022-08-12T01:37:50.092Z,101492.09
2022-08-12T01:40:36.990Z,101493.88
2022-08-12T01:43:10.105Z,101490.56
2022-08-12T01:45:47.583Z,101496.81
2022-08-12T01:48:26.031Z,101493.84
2022-08-12T01:51:06.077Z,101496.78
2022-08-12T01:53:51.140Z,101495.50
2022-08-12T01:56:25.664Z,101506.78
2022-08-12T01:59:16.347Z,101503.00
2022-08-12T02:01:47.798Z,101506.03
2022-08-12T02:04:46.831Z,101507.56
2022-08-12T02:07:42.761Z,101500.84
2022-08-12T02:10:51.255Z,101500.94
2022-08-12T02:13:48.476Z,101497.97
2022-08-12T02:16:31.532Z,101500.56
2022-08-12T02:19:22.671Z,101506.81
2022-08-12T02:22:01.503Z,101506.59
2022-08-12T02:24:35.480Z,101512.38
2022-08-12T02:27:08.315Z,101504.75
2022-08-12T02:29:40.240Z,101502.78
2022-08-12T02:32:09.999Z,101500.34
2022-08-12T02:34:39.848Z,101499.81
2022-08-12T02:37:10.610Z,101502.91
2022-08-12T02:39:42.282Z,101500.66
2022-08-12T02:42:13.067Z,101499.97
2022-08-12T02:44:46.504Z,101505.88
2022-08-12T02:47:58.076Z,101504.00
2022-08-12T02:50:06.921Z,101499.56
2022-08-12T02:52:35.967Z,101509.22
2022-08-12T02:55:34.520Z,101506.41
2022-08-12T02:58:05.527Z,101513.19
2022-08-12T03:00:40.481Z,101501.09
2022-08-12T03:03:12.674Z,101504.00
2022-08-12T03:05:49.747Z,101509.34
2022-08-12T03:08:32.638Z,101507.56
2022-08-12T03:11:06.259Z,101502.69
2022-08-12T03:13:52.316Z,101509.78
2022-08-12T03:16:23.903Z,101506.81
2022-08-12T03:18:52.477Z,101501.44
2022-08-12T03:21:56.449Z,101505.22
2022-08-12T03:24:15.498Z,101505.16
2022-08-12T03:26:48.512Z,101507.69
2022-08-12T03:29:18.699Z,101515.59
2022-08-12T03:31:49.543Z,101513.38
2022-08-12T03:34:23.613Z,101511.69
2022-08-12T03:36:55.400Z,101510.91
2022-08-12T03:39:37.017Z,101503.84
2022-08-12T03:42:25.807Z,101503.59
2022-08-12T03:45:34.840Z,101514.09
2022-08-12T03:48:34.142Z,101520.38
2022-08-12T03:51:21.280Z,101510.00
2022-08-12T03:54:11.109Z,101510.97
2022-08-12T03:56:58.435Z,101505.03
2022-08-12T03:59:44.556Z,101505.50
2022-08-12T04:02:15.914Z,101511.72
2022-08-12T04:04:46.731Z,101509.00
2022-08-12T04:07:16.457Z,101505.69
2022-08-12T04:09:47.453Z,101510.13
2022-08-12T04:12:33.753Z,101505.69
2022-08-12T04:15:03.556Z,101504.28
2022-08-12T04:17:34.394Z,101508.19
2022-08-12T04:20:04.629Z,101502.56
2022-08-12T04:22:33.512Z,101512.19
2022-08-12T04:25:02.600Z,101513.91
2022-08-12T04:27:32.449Z,101516.53
2022-08-12T04:30:21.315Z,101522.75
2022-08-12T04:32:52.302Z,101520.47
2022-08-12T04:35:23.851Z,101523.28
2022-08-12T04:37:58.333Z,101520.19
2022-08-12T04:40:31.865Z,101515.16
2022-08-12T04:43:02.235Z,101517.97
2022-08-12T04:45:31.559Z,101512.19
2022-08-12T04:48:01.967Z,101505.56
2022-08-12T04:50:36.020Z,101509.72
2022-08-12T04:53:08.240Z,101510.44
2022-08-12T04:55:39.112Z,101511.25
2022-08-12T04:58:08.482Z,101511.47
2022-08-12T05:00:38.545Z,101501.94
2022-08-12T05:03:08.257Z,101508.78
2022-08-12T05:05:38.703Z,101514.03
2022-08-12T05:08:13.251Z,101508.53
2022-08-12T05:10:41.659Z,101508.00
2022-08-12T05:13:14.503Z,101512.00
2022-08-12T05:16:03.923Z,101508.50
2022-08-12T05:18:33.750Z,101507.34
2022-08-12T05:21:05.477Z,101507.31
2022-08-12T05:23:34.377Z,101510.06
2022-08-12T05:26:02.842Z,101504.44
2022-08-12T05:28:31.580Z,101500.00
2022-08-12T05:31:01.920Z,101507.56
2022-08-12T05:33:37.723Z,101507.66
2022-08-12T05:36:09.701Z,101511.13
2022-08-12T05:38:58.267Z,101511.16
2022-08-12T05:41:28.635Z,101510.25
2022-08-12T05:43:58.885Z,101514.88
2022-08-12T05:46:28.809Z,101510.03
2022-08-12T05:48:59.055Z,101520.22
2022-08-12T05:51:39.612Z,101516.38
2022-08-12T05:54:11.252Z,101517.25
2022-08-12T05:56:40.867Z,101510.56
2022-08-12T05:59:11.422Z,101514.97
2022-08-12T06:02:09.837Z,101521.94
2022-08-12T06:04:29.551Z,101523.09
2022-08-12T06:06:59.541Z,101523.22
2022-08-12T06:09:30.366Z,101528.66
2022-08-12T06:12:04.698Z,101525.53
2022-08-12T06:14:39.209Z,101531.16
2022-08-12T06:17:09.615Z,101523.69
2022-08-12T06:20:26.481Z,101535.09
2022-08-12T06:22:28.079Z,101536.31
2022-08-12T06:24:56.403Z,101541.53
2022-08-12T06:27:24.807Z,101528.84
2022-08-12T06:30:10.105Z,101536.41
2022-08-12T06:32:51.836Z,101533.13
2022-08-12T06:35:46.672Z,101533.13
2022-08-12T06:38:20.876Z,101529.66
2022-08-12T06:41:10.453Z,101532.88
2022-08-12T06:44:05.013Z,101526.81
2022-08-12T06:46:29.895Z,101527.19
2022-08-12T06:48:59.908Z,101525.53
2022-08-12T06:51:31.125Z,101519.72
2022-08-12T06:54:02.881Z,101511.06
2022-08-12T06:57:03.554Z,101517.13
2022-08-12T06:59:21.648Z,101521.19
2022-08-12T07:01:51.501Z,101527.97
2022-08-12T07:04:38.685Z,101528.06
2022-08-12T07:07:08.620Z,101524.59
2022-08-12T07:10:06.762Z,101528.00
2022-08-12T07:12:28.327Z,101525.06
2022-08-12T07:14:57.754Z,101529.19
2022-08-12T07:17:26.519Z,101529.84
2022-08-12T07:19:59.171Z,101531.03
2022-08-12T07:22:27.959Z,101529.22
2022-08-12T07:25:11.786Z,101532.59
2022-08-12T07:27:42.747Z,101531.53
2022-08-12T07:30:12.379Z,101533.59
2022-08-12T07:32:41.222Z,101529.53
2022-08-12T07:35:10.571Z,101543.47
2022-08-12T07:37:42.833Z,101548.22
2022-08-12T07:40:13.754Z,101544.81
2022-08-12T07:42:43.695Z,101547.41
2022-08-12T07:45:13.480Z,101553.94
2022-08-12T07:47:43.505Z,101545.00
2022-08-12T07:50:13.160Z,101534.75
2022-08-12T07:52:47.256Z,101531.94
2022-08-12T07:55:19.647Z,101531.97
2022-08-12T07:57:56.009Z,101544.66
2022-08-12T08:00:25.158Z,101537.59
2022-08-12T08:02:54.627Z,101535.28
2022-08-12T08:05:25.628Z,101539.28
2022-08-12T08:07:57.634Z,101525.88
2022-08-12T08:10:27.650Z,101531.78
2022-08-12T08:12:56.223Z,101543.50
2022-08-12T08:15:51.361Z,101543.94
2022-08-12T08:18:26.217Z,101544.41
2022-08-12T08:20:57.225Z,101545.16
2022-08-12T08:23:56.404Z,101539.34
2022-08-12T08:26:28.123Z,101543.91
2022-08-12T08:28:57.001Z,101531.53
2022-08-12T08:31:25.639Z,101539.91
2022-08-12T08:34:01.344Z,101545.13
2022-08-12T08:36:39.194Z,101535.69
2022-08-12T08:39:09.205Z,101541.00
2022-08-12T08:42:17.157Z,101535.97
2022-08-12T08:44:45.953Z,101541.31
2022-08-12T08:47:15.043Z,101533.56
2022-08-12T08:49:43.626Z,101542.19
2022-08-12T08:52:13.449Z,101536.94
2022-08-12T08:55:01.988Z,101529.78
2022-08-12T08:57:43.822Z,101530.63
2022-08-12T09:00:15.800Z,101528.84
2022-08-12T09:02:49.571Z,101526.00
2022-08-12T09:05:28.238Z,101525.78
2022-08-12T09:14:18.921Z,101529.38
2022-08-12T09:16:57.883Z,101525.38
2022-08-12T09:19:27.335Z,101529.22
2022-08-12T09:22:00.325Z,101527.66
2022-08-12T09:24:30.025Z,101523.25
2022-08-12T09:26:59.052Z,101515.50
2022-08-12T09:30:10.830Z,101517.13
2022-08-12T09:32:29.433Z,101525.06
2022-08-12T09:35:21.900Z,101525.09
2022-08-12T09:37:55.137Z,101528.03
2022-08-12T09:41:01.393Z,101522.13
2022-08-12T09:43:35.020Z,101520.78
2022-08-12T09:46:21.680Z,101512.19
2022-08-12T09:48:56.635Z,101505.69
2022-08-12T09:51:37.381Z,101514.84
2022-08-12T09:54:30.897Z,101512.91
2022-08-12T09:57:02.823Z,101505.19
2022-08-12T10:00:16.570Z,101511.16
2022-08-12T10:02:45.914Z,101502.03
2022-08-12T10:05:17.724Z,101505.03
2022-08-12T10:07:49.077Z,101495.41
2022-08-12T10:10:22.665Z,101489.28
2022-08-12T10:13:13.935Z,101487.13
2022-08-12T10:16:05.288Z,101487.25
2022-08-12T10:18:51.828Z,101477.63
2022-08-12T10:21:23.879Z,101480.47
2022-08-12T10:24:06.053Z,101482.38
2022-08-12T10:26:53.409Z,101467.75
2022-08-12T10:30:40.769Z,101466.22
2022-08-12T10:32:44.814Z,101473.63
2022-08-12T10:35:20.660Z,101468.03
2022-08-12T10:38:34.680Z,101457.91
2022-08-12T10:40:59.735Z,101447.34
2022-08-12T10:43:56.083Z,101439.72
2022-08-12T10:46:31.397Z,101437.75
2022-08-12T10:49:07.033Z,101438.13
2022-08-12T10:52:32.892Z,101438.19
2022-08-12T10:54:42.591Z,101434.81
2022-08-12T10:57:18.416Z,101421.84
2022-08-12T11:00:33.788Z,101431.19
2022-08-12T11:04:24.252Z,101414.13
2022-08-12T11:07:07.182Z,101408.41
2022-08-12T11:08:43.714Z,101418.72
2022-08-12T11:12:07.720Z,101424.31
2022-08-12T11:14:13.122Z,101410.09
2022-08-12T11:17:43.219Z,101399.84
2022-08-12T11:19:46.448Z,101414.47
2022-08-12T11:22:15.166Z,101405.81
2022-08-12T11:24:51.547Z,101399.69
2022-08-12T11:27:23.573Z,101394.16
2022-08-12T11:30:02.085Z,101394.00
2022-08-12T11:32:38.548Z,101403.53
2022-08-12T11:35:11.804Z,101401.03
2022-08-12T11:37:59.314Z,101402.53
2022-08-12T11:40:30.340Z,101403.03
2022-08-12T11:43:18.959Z,101395.59
2022-08-12T11:45:53.426Z,101379.84
2022-08-12T11:48:26.936Z,101380.47
2022-08-12T11:50:56.511Z,101384.63
2022-08-12T11:53:57.544Z,101383.53
2022-08-12T11:56:15.063Z,101383.91
2022-08-12T12:02:00.987Z,101379.28
2022-08-12T12:04:28.932Z,101372.63
2022-08-12T12:07:07.378Z,101374.06
2022-08-12T12:09:52.935Z,101373.72
2022-08-12T12:12:25.394Z,101375.13
2022-08-12T12:14:55.764Z,101364.97
2022-08-12T12:17:25.211Z,101375.84
2022-08-12T12:19:55.051Z,101380.31
2022-08-12T12:22:27.072Z,101365.97
2022-08-12T12:25:12.950Z,101375.13
2022-08-12T12:28:05.863Z,101366.59
2022-08-12T12:30:35.503Z,101362.53
2022-08-12T12:33:04.639Z,101359.44
2022-08-12T12:36:18.558Z,101345.03
2022-08-12T12:38:25.366Z,101360.56
2022-08-12T12:40:54.746Z,101343.97
2022-08-12T12:43:28.441Z,101337.13
2022-08-12T12:46:11.239Z,101340.03
2022-08-12T12:48:44.060Z,101332.69
2022-08-12T12:51:48.235Z,101330.31
2022-08-12T12:54:10.461Z,101330.09
2022-08-12T12:56:42.576Z,101326.03
2022-08-12T12:59:54.529Z,101326.03
2022-08-12T13:02:08.648Z,101315.25
2022-08-12T13:04:38.069Z,101315.56
2022-08-12T13:07:07.988Z,101318.44
2022-08-12T13:09:37.051Z,101309.75
2022-08-12T13:12:10.426Z,101305.19
2022-08-12T13:14:40.677Z,101306.94
2022-08-12T13:17:14.538Z,101303.41
2022-08-12T13:19:48.390Z,101304.63
2022-08-12T13:22:23.853Z,101307.22
2022-08-12T13:24:56.923Z,101304.91
2022-08-12T13:27:35.391Z,101309.03
2022-08-12T13:30:11.493Z,101317.69
2022-08-12T13:32:42.273Z,101308.56
2022-08-12T13:35:33.048Z,101308.72
2022-08-12T13:38:02.568Z,101300.50
2022-08-12T13:40:33.769Z,101300.22
2022-08-12T13:43:07.074Z,101293.75
2022-08-12T13:45:37.280Z,101293.75
2022-08-12T13:48:08.192Z,101290.72
2022-08-12T13:50:39.167Z,101272.53
2022-08-12T13:53:24.104Z,101293.00
2022-08-12T13:55:59.693Z,101274.72
2022-08-12T13:58:33.013Z,101273.59
2022-08-12T14:01:06.472Z,101291.28
2022-08-12T14:03:51.533Z,101277.06
2022-08-12T14:06:21.875Z,101268.66
2022-08-12T14:08:55.706Z,101267.75
2022-08-12T14:11:27.832Z,101268.03
2022-08-12T14:14:03.800Z,101265.25
2022-08-12T14:16:49.339Z,101265.34
2022-08-12T14:19:24.288Z,101263.22
2022-08-12T14:21:58.852Z,101258.38
2022-08-12T14:24:40.132Z,101265.63
2022-08-12T14:27:11.287Z,101261.28
2022-08-12T14:30:05.739Z,101268.31
2022-08-12T14:32:35.521Z,101267.91
2022-08-12T14:35:05.208Z,101253.69
2022-08-12T14:37:55.565Z,101253.69
2022-08-12T14:40:27.914Z,101252.84
2022-08-12T14:42:57.934Z,101241.69
2022-08-12T14:45:44.355Z,101255.03
2022-08-12T14:48:24.082Z,101267.72
2022-08-12T14:52:38.706Z,101266.19
2022-08-12T14:55:05.698Z,101257.34
2022-08-12T14:56:59.738Z,101255.66
2022-08-12T14:59:57.257Z,101253.91
2022-08-12T15:02:28.647Z,101253.94
2022-08-12T15:05:00.828Z,101253.63
2022-08-12T15:07:33.449Z,101241.72
2022-08-12T15:10:31.325Z,101248.84
2022-08-12T15:13:06.955Z,101245.75
2022-08-12T15:15:44.101Z,101240.78
2022-08-12T15:18:21.744Z,101239.19
2022-08-12T15:20:54.767Z,101239.88
2022-08-12T15:23:28.865Z,101237.38
2022-08-12T15:25:59.732Z,101234.25
2022-08-12T15:28:33.135Z,101244.06
2022-08-12T15:31:02.341Z,101229.78
2022-08-12T15:33:44.697Z,101231.19
2022-08-12T15:36:19.453Z,101230.53
2022-08-12T15:39:05.399Z,101235.22
2022-08-12T15:41:49.280Z,101235.16
2022-08-12T15:44:38.321Z,101219.63
2022-08-12T15:47:08.971Z,101216.47
2022-08-12T15:49:54.417Z,101224.56
2022-08-12T15:52:30.342Z,101214.28
2022-08-12T15:55:06.062Z,101225.69
2022-08-12T15:57:41.631Z,101225.66
2022-08-12T16:00:32.025Z,101222.06
2022-08-12T16:03:01.912Z,101218.72
2022-08-12T16:06:13.249Z,101222.22
2022-08-12T16:08:27.485Z,101226.88
2022-08-12T16:10:56.933Z,101225.13
2022-08-12T16:13:34.255Z,101225.34
2022-08-12T16:16:04.309Z,101223.34
2022-08-12T16:18:56.110Z,101219.06
2022-08-12T16:21:51.788Z,101216.47
2022-08-12T16:24:15.339Z,101223.31
2022-08-12T16:26:45.004Z,101217.53
2022-08-12T16:29:15.504Z,101212.44
2022-08-12T16:31:45.333Z,101201.50
2022-08-12T16:34:42.149Z,101206.00
2022-08-12T16:37:07.835Z,101201.72
2022-08-12T16:39:57.445Z,101201.94
2022-08-12T16:42:28.518Z,101196.63
2022-08-12T16:44:59.487Z,101190.88
2022-08-12T16:47:28.876Z,101192.19
2022-08-12T16:50:17.545Z,101187.00
2022-08-12T16:52:49.203Z,101187.16
2022-08-12T16:55:19.893Z,101184.16
2022-08-12T16:57:50.215Z,101185.38
2022-08-12T17:00:24.126Z,101184.56
2022-08-12T17:02:58.087Z,101180.19
2022-08-12T17:05:31.299Z,101177.44
2022-08-12T17:08:01.520Z,101176.75
2022-08-12T17:10:36.816Z,101176.84
2022-08-12T17:13:10.028Z,101187.28
2022-08-12T17:15:57.657Z,101176.38
2022-08-12T17:18:43.461Z,101182.59
2022-08-12T17:21:17.553Z,101176.09
2022-08-12T17:23:53.085Z,101174.06
2022-08-12T17:26:30.927Z,101181.81
2022-08-12T17:29:00.462Z,101175.91
2022-08-12T17:32:01.007Z,101181.00
2022-08-12T17:34:33.543Z,101185.41
2022-08-12T17:37:05.244Z,101186.13
2022-08-12T17:40:14.935Z,101184.44
2022-08-12T17:42:34.488Z,101181.22
2022-08-12T17:45:17.360Z,101188.22
2022-08-12T17:48:01.554Z,101190.59
2022-08-12T17:50:34.784Z,101182.75
2022-08-12T17:53:04.020Z,101188.25
2022-08-12T17:55:44.056Z,101195.09
2022-08-12T17:58:37.249Z,101187.72
2022-08-12T18:01:11.429Z,101184.28
2022-08-12T18:03:57.505Z,101185.59
2022-08-12T18:06:31.574Z,101188.56
2022-08-12T18:09:09.679Z,101187.25
2022-08-12T18:12:05.339Z,101186.88
2022-08-12T18:14:41.367Z,101192.63
2022-08-12T18:17:16.327Z,101194.97
2022-08-12T18:20:05.022Z,101193.91
2022-08-12T18:22:35.150Z,101192.94
2022-08-12T18:25:06.678Z,101201.97
2022-08-12T18:27:44.473Z,101200.94
2022-08-12T18:30:28.945Z,101202.97
2022-08-12T18:33:03.818Z,101208.91
2022-08-12T18:35:46.620Z,101205.81
2022-08-12T18:38:22.612Z,101200.19
2022-08-12T18:41:27.417Z,101210.56
2022-08-12T18:44:02.666Z,101214.50
2022-08-12T18:46:54.270Z,101215.09
2022-08-12T18:49:29.613Z,101216.84
2022-08-12T18:52:03.951Z,101214.56
2022-08-12T18:54:35.846Z,101218.25
2022-08-12T18:57:16.532Z,101215.25
2022-08-12T19:00:01.085Z,101219.50
2022-08-12T19:02:36.408Z,101216.38
2022-08-12T19:05:09.931Z,101222.66
2022-08-12T19:07:50.049Z,101214.69
2022-08-12T19:10:31.679Z,101222.03
2022-08-12T19:13:20.996Z,101223.78
2022-08-12T19:15:54.439Z,101221.56
2022-08-12T19:18:26.185Z,101219.13
2022-08-12T19:20:59.143Z,101219.13
2022-08-12T19:23:34.859Z,101228.25
2022-08-12T19:26:04.555Z,101230.13
2022-08-12T19:28:36.467Z,101235.41
2022-08-12T19:31:57.975Z,101231.78
2022-08-12T19:35:07.022Z,101229.63
2022-08-12T19:37:27.204Z,101234.88
2022-08-12T19:40:30.771Z,101233.44
2022-08-12T19:43:00.905Z,101235.53
2022-08-12T19:45:41.753Z,101239.38
2022-08-12T19:48:16.519Z,101238.28
2022-08-12T19:50:50.560Z,101240.44
2022-08-12T19:53:22.914Z,101242.59
2022-08-12T19:55:53.850Z,101242.31
2022-08-12T19:58:25.741Z,101239.94
2022-08-12T20:00:56.039Z,101240.69
2022-08-12T20:03:38.553Z,101243.13
2022-08-12T20:06:18.302Z,101247.03
2022-08-12T20:08:56.643Z,101249.25
2022-08-12T20:12:09.829Z,101245.53
2022-08-12T20:14:19.310Z,101252.16
2022-08-12T20:16:56.470Z,101257.59
2022-08-12T20:20:01.042Z,101255.38
2022-08-12T20:22:29.875Z,101256.00
2022-08-12T20:25:09.038Z,101262.06
2022-08-12T20:28:04.194Z,101254.09
2022-08-12T20:30:52.888Z,101254.09
2022-08-12T20:33:23.252Z,101254.44
2022-08-12T20:36:40.204Z,101260.66
2022-08-12T20:38:59.283Z,101267.69
2022-08-12T20:41:29.405Z,101259.41
2022-08-12T20:43:59.675Z,101269.06
2022-08-12T20:46:32.577Z,101260.13
2022-08-12T20:49:14.310Z,101265.06
2022-08-12T20:51:54.927Z,101270.66
2022-08-12T20:54:32.748Z,101261.94
2022-08-12T20:57:09.651Z,101256.63
2022-08-12T20:59:47.682Z,101261.09
2022-08-12T21:02:18.519Z,101257.81
2022-08-12T21:05:16.464Z,101261.16
2022-08-12T21:07:52.314Z,101260.50
2022-08-12T21:10:26.449Z,101259.50
2022-08-12T21:12:56.757Z,101256.53
2022-08-12T21:15:30.545Z,101258.19
2022-08-12T21:18:27.359Z,101258.53
2022-08-12T21:20:59.187Z,101270.34
2022-08-12T21:23:30.948Z,101271.88
2022-08-12T21:26:12.431Z,101264.69
2022-08-12T21:28:58.072Z,101266.69
2022-08-12T21:32:36.310Z,101270.03
2022-08-12T21:34:18.453Z,101273.22
2022-08-12T21:36:49.493Z,101266.69
2022-08-12T21:39:21.914Z,101270.72
2022-08-12T21:41:55.459Z,101267.03
2022-08-12T21:45:44.240Z,101272.53
2022-08-12T21:47:21.271Z,101275.38
2022-08-12T21:50:04.170Z,101272.88
2022-08-12T21:52:36.952Z,101272.53
2022-08-12T21:55:18.515Z,101272.69
2022-08-12T21:57:54.565Z,101272.69
2022-08-12T22:00:34.381Z,101277.88
2022-08-12T22:04:01.929Z,101276.22
2022-08-12T22:06:31.753Z,101285.31
2022-08-12T22:09:16.022Z,101283.47
2022-08-12T22:11:56.033Z,101281.34
2022-08-12T22:14:28.953Z,101286.66
2022-08-12T22:17:00.516Z,101290.63
2022-08-12T22:19:33.570Z,101299.47
2022-08-12T22:22:05.436Z,101293.81
2022-08-12T22:24:34.556Z,101296.94
2022-08-12T22:27:08.190Z,101291.44
2022-08-12T22:30:27.505Z,101294.91
2022-08-12T22:32:56.139Z,101290.56
2022-08-12T22:35:55.237Z,101290.38
2022-08-12T22:38:24.819Z,101284.84
2022-08-12T22:40:58.457Z,101283.50
2022-08-12T22:43:58.897Z,101287.44
2022-08-12T22:46:52.748Z,101289.41
2022-08-12T22:49:37.175Z,101292.34
2022-08-12T22:52:13.115Z,101284.22
2022-08-12T22:55:00.198Z,101287.31
2022-08-12T22:57:53.439Z,101289.97
2022-08-12T23:00:24.120Z,101289.06
2022-08-12T23:03:00.787Z,101284.41
2022-08-12T23:05:57.326Z,101285.53
2022-08-12T23:08:22.643Z,101281.31
2022-08-12T23:10:51.438Z,101277.25
2022-08-12T23:13:43.284Z,101277.06
2022-08-12T23:16:18.117Z,101274.25
2022-08-12T23:19:09.565Z,101278.53
2022-08-12T23:22:06.192Z,101277.34
2022-08-12T23:24:32.231Z,101271.28
2022-08-12T23:27:22.090Z,101272.97
2022-08-12T23:30:16.683Z,101271.41
2022-08-12T23:32:38.994Z,101271.13
2022-08-12T23:35:09.783Z,101275.31
2022-08-12T23:37:53.592Z,101270.31
2022-08-12T23:40:24.736Z,101278.06
2022-08-12T23:42:55.291Z,101265.63
2022-08-12T23:45:31.187Z,101268.72
2022-08-12T23:48:00.539Z,101262.19
2022-08-12T23:50:33.794Z,101266.00
2022-08-12T23:53:06.417Z,101260.47
2022-08-12T23:55:45.607Z,101262.00
2022-08-12T23:58:22.993Z,101270.69
